Asbury, Missouri
Current Conditions -  °F | °C
As of 3:53 PM on Tuesday 21 Oct 2014 (Local Time) from KJLN Reporting Station
Clear Clear  
Wind Chill: 76°   Ceiling: Unl
Heat Index: 76°   Visibility: 10mi
Dew Point: 50°   Wind: 0mph
Humidity: 40%   Direction: NA
Pressure: 30.07"   Gusts: NA
Location:  37.27°N, 94.61°W
Report Text: KJLN 212053Z 00000KT 10SM CLR 24/10 A3007 RMK AO2 SLP178 T02440100 56017
Loading
Personal Weather Stations






























Interactive Weather Map
Tropical Storm Tracking
New forecast layout! Learn more

10-Day Weather Forecast

Advertisements
Track Severe Weather on mobile